Time;durP1;ratioP1;P1;durP2;ratioP2;P2;SDS_P1;SDS_P2;PMS_P1;PMS_P2;Temp;Humidity;BMP_temperature;BMP_pressure;BME280_temperature;BME280_humidity;BME280_pressure;Samples;Min_cycle;Max_cycle;Signal;HPM_P1;HPM_P2
2023/10/04 00:02:19;;;;;;;16.00;13.77;;;;;;;11.87;89.64;93514.78;5094820;28;20178;-77
2023/10/04 00:04:45;;;;;;;16.97;14.67;;;;;;;11.78;90.57;93523.44;5066991;28;20274;-77
2023/10/04 00:07:11;;;;;;;19.33;16.20;;;;;;;11.81;90.58;93505.38;5057626;28;20324;-77
2023/10/04 00:09:36;;;;;;;18.77;15.53;;;;;;;11.87;90.72;93514.00;5062521;28;20226;-78
2023/10/04 00:12:02;;;;;;;16.93;15.23;;;;;;;11.76;90.24;93505.38;5063918;28;20269;-77
2023/10/04 00:14:27;;;;;;;18.17;15.03;;;;;;;11.67;91.52;93520.03;5067703;28;20230;-77
2023/10/04 00:16:59;;;;;;;17.53;14.93;;;;;;;11.62;91.34;93508.75;5056407;28;20193;-77
2023/10/04 00:19:25;;;;;;;17.97;15.07;;;;;;;11.78;91.06;93513.72;5067303;28;20223;-76
2023/10/04 00:21:51;;;;;;;21.17;15.97;;;;;;;11.73;90.44;93507.72;5069503;28;20199;-76
2023/10/04 00:24:16;;;;;;;16.73;14.90;;;;;;;11.75;90.82;93505.63;5069575;28;20240;-78
2023/10/04 00:26:42;;;;;;;20.83;15.30;;;;;;;11.60;90.91;93502.97;5068303;28;20227;-78
2023/10/04 00:29:08;;;;;;;19.40;15.33;;;;;;;11.47;91.99;93511.38;5067225;28;20246;-78
2023/10/04 00:31:33;;;;;;;17.27;15.27;;;;;;;11.52;91.06;93498.31;5060198;28;20208;-75
2023/10/04 00:33:59;;;;;;;20.90;15.80;;;;;;;11.48;91.04;93515.53;5069171;28;20221;-78
2023/10/04 00:36:24;;;;;;;17.13;14.90;;;;;;;11.43;91.83;93502.47;5069671;28;20185;-77
2023/10/04 00:38:50;;;;;;;20.47;14.23;;;;;;;11.37;92.79;93506.91;5067520;28;20223;-77
2023/10/04 00:41:16;;;;;;;18.00;14.63;;;;;;;11.42;92.28;93503.53;5069994;28;20197;-77
2023/10/04 00:43:52;;;;;;;17.10;14.23;;;;;;;11.42;91.54;93498.28;5058927;28;20217;-77
2023/10/04 00:46:19;;;;;;;15.83;14.13;;;;;;;11.46;90.73;93504.56;5066822;28;20277;-82
2023/10/04 00:48:46;;;;;;;19.03;15.30;;;;;;;11.46;90.66;93504.56;5068632;28;20227;-80
2023/10/04 00:51:12;;;;;;;17.27;15.33;;;;;;;11.38;90.80;93502.50;5064205;28;20224;-75
2023/10/04 00:53:39;;;;;;;20.10;15.03;;;;;;;11.38;91.49;93507.72;5057421;28;20286;-77
2023/10/04 00:56:08;;;;;;;16.07;14.47;;;;;;;11.19;92.53;93489.91;5068437;28;20196;-77
2023/10/04 00:58:34;;;;;;;16.40;14.77;;;;;;;11.21;92.35;93487.81;5067952;28;20217;-77
2023/10/04 01:01:00;;;;;;;16.60;14.57;;;;;;;11.09;92.38;93482.06;5066293;28;20189;-77
2023/10/04 01:03:30;;;;;;;15.33;13.73;;;;;;;11.17;92.51;93499.84;5066949;28;20229;-75
2023/10/04 01:05:57;;;;;;;16.83;14.60;;;;;;;11.17;92.49;93497.22;5064500;28;20257;-77
2023/10/04 01:08:23;;;;;;;15.83;14.17;;;;;;;10.84;92.97;93458.53;5068520;28;20236;-77
2023/10/04 01:10:50;;;;;;;15.27;13.90;;;;;;;11.16;92.49;93500.88;5064097;28;20210;-78
2023/10/04 01:13:20;;;;;;;18.40;15.23;;;;;;;11.11;92.38;93498.25;5068913;28;20229;-77
2023/10/04 01:15:46;;;;;;;20.60;15.33;;;;;;;11.10;91.82;93490.69;5069392;28;20197;-77
2023/10/04 01:18:12;;;;;;;16.57;14.70;;;;;;;11.08;92.02;93495.41;5068911;28;20313;-78
2023/10/04 01:20:39;;;;;;;16.67;14.93;;;;;;;11.08;92.18;93503.25;5062941;28;20252;-77
2023/10/04 01:23:06;;;;;;;18.90;15.53;;;;;;;11.14;92.79;93502.97;5059385;28;20237;-76
2023/10/04 01:25:46;;;;;;;16.10;14.03;;;;;;;10.93;94.39;93511.81;5065199;28;20241;-78
2023/10/04 01:28:13;;;;;;;16.57;14.90;;;;;;;10.96;94.43;93510.50;5060438;28;20236;-77
2023/10/04 01:30:44;;;;;;;16.30;14.80;;;;;;;10.99;93.85;93516.00;5054709;28;20201;-76
2023/10/04 01:33:15;;;;;;;18.37;14.57;;;;;;;11.01;93.13;93508.72;5068958;28;20274;-77
2023/10/04 01:35:49;;;;;;;16.63;14.80;;;;;;;10.96;93.72;93505.28;5056763;28;20172;-74
2023/10/04 01:38:14;;;;;;;15.77;14.27;;;;;;;10.94;93.34;93508.16;5066002;28;20914;-77
2023/10/04 01:40:42;;;;;;;16.40;14.77;;;;;;;10.97;93.29;93510.25;5069319;28;20165;-77
2023/10/04 01:43:15;;;;;;;16.23;14.53;;;;;;;10.92;93.21;93510.28;5068470;28;20217;-76
2023/10/04 01:45:58;;;;;;;17.03;15.43;;;;;;;11.08;93.18;93513.69;5056106;28;20231;-76
2023/10/04 01:48:24;;;;;;;16.50;14.80;;;;;;;10.90;94.49;93512.34;5068655;28;20222;-76
2023/10/04 01:50:53;;;;;;;16.30;14.50;;;;;;;11.00;94.14;93511.59;5064991;28;20236;-77
2023/10/04 01:53:25;;;;;;;17.17;15.33;;;;;;;10.91;93.53;93507.91;5065209;28;20213;-77
2023/10/04 01:55:51;;;;;;;15.17;13.60;;;;;;;10.78;94.25;93511.78;5068880;28;20201;-78
2023/10/04 01:58:23;;;;;;;18.93;14.40;;;;;;;10.89;93.96;93505.56;5061783;28;20224;-77
2023/10/04 02:00:48;;;;;;;16.63;14.93;;;;;;;10.94;94.07;93508.16;5066842;28;20216;-77
2023/10/04 02:03:14;;;;;;;17.43;14.73;;;;;;;10.91;93.88;93507.91;5055900;28;20226;-76
2023/10/04 02:05:40;;;;;;;15.63;14.00;;;;;;;10.81;94.06;93502.66;5062110;28;20205;-77
2023/10/04 02:08:10;;;;;;;18.73;15.17;;;;;;;10.80;94.35;93504.47;5061174;28;20222;-76
2023/10/04 02:10:36;;;;;;;15.50;13.50;;;;;;;10.77;94.57;93496.38;5068935;28;20205;-77
2023/10/04 02:13:14;;;;;;;22.33;15.10;;;;;;;10.83;94.24;93517.00;5062762;28;20259;-77
2023/10/04 02:15:41;;;;;;;16.17;14.40;;;;;;;10.73;94.19;93511.78;5067820;28;20180;-76
2023/10/04 02:18:07;;;;;;;16.27;14.77;;;;;;;10.59;94.89;93495.03;5067955;28;20232;-75
2023/10/04 02:20:34;;;;;;;17.87;14.23;;;;;;;10.67;94.92;93512.81;5064890;28;20250;-75
2023/10/04 02:23:00;;;;;;;15.57;14.07;;;;;;;10.86;94.33;93500.06;5058531;28;20296;-75
2023/10/04 02:25:26;;;;;;;18.53;15.30;;;;;;;10.78;94.19;93511.78;5059112;28;20216;-75
2023/10/04 02:27:52;;;;;;;16.73;14.30;;;;;;;10.70;94.76;93503.66;5069057;28;20246;-75
2023/10/04 02:30:23;;;;;;;16.67;14.97;;;;;;;10.79;94.64;93502.91;5059450;28;20225;-76
2023/10/04 02:32:50;;;;;;;20.70;14.77;;;;;;;10.67;95.39;93510.19;5063742;28;20182;-76
2023/10/04 02:35:35;;;;;;;16.10;14.27;;;;;;;10.70;95.07;93507.06;5067754;28;20190;-77
2023/10/04 02:38:09;;;;;;;15.97;14.37;;;;;;;10.31;95.22;93461.50;5068000;28;20237;-76
2023/10/04 02:40:35;;;;;;;18.77;15.47;;;;;;;10.52;95.82;93510.13;5070281;28;20198;-77
2023/10/04 02:43:01;;;;;;;17.67;16.07;;;;;;;10.70;96.23;93508.88;5068843;28;20237;-76
2023/10/04 02:45:29;;;;;;;17.47;13.87;;;;;;;10.69;96.02;93518.53;5058243;28;20273;-77
2023/10/04 02:47:54;;;;;;;17.80;14.27;;;;;;;10.41;96.66;93492.84;5066086;28;20233;-77
2023/10/04 02:50:22;;;;;;;16.87;15.07;;;;;;;10.53;95.75;93496.06;5060760;28;20219;-76
2023/10/04 02:52:50;;;;;;;17.17;14.67;;;;;;;10.68;95.64;93514.38;5062728;28;20221;-77
2023/10/04 02:55:17;;;;;;;19.70;15.93;;;;;;;10.70;95.97;93507.06;5064615;28;20192;-77
2023/10/04 02:57:49;;;;;;;19.67;16.57;;;;;;;10.59;95.91;93505.47;5067669;28;20272;-77
2023/10/04 03:00:19;;;;;;;17.33;15.57;;;;;;;10.54;96.29;93507.25;5070538;28;20182;-79
2023/10/04 03:02:46;;;;;;;18.13;16.33;;;;;;;10.50;96.70;93504.41;5065047;28;20194;-78
2023/10/04 03:05:14;;;;;;;17.87;16.00;;;;;;;10.60;96.24;93507.03;5070255;28;20186;-79
2023/10/04 03:07:41;;;;;;;19.27;15.97;;;;;;;10.44;97.14;93492.38;5059626;28;20212;-80
2023/10/04 03:10:10;;;;;;;17.33;15.17;;;;;;;10.48;97.08;93503.06;5063100;28;20209;-79
2023/10/04 03:12:35;;;;;;;19.47;16.77;;;;;;;10.57;97.13;93506.75;5070273;28;20178;-76
2023/10/04 03:15:01;;;;;;;17.50;15.57;;;;;;;10.58;97.16;93509.13;5070314;28;20210;-76
2023/10/04 03:17:26;;;;;;;16.73;14.63;;;;;;;10.65;96.69;93501.81;5058807;28;20186;-77
2023/10/04 03:19:51;;;;;;;16.53;14.90;;;;;;;10.59;97.03;93505.47;5060749;28;20232;-77
2023/10/04 03:22:19;;;;;;;18.20;15.77;;;;;;;10.59;97.26;93507.28;5059506;28;20201;-75
2023/10/04 03:24:45;;;;;;;22.73;16.43;;;;;;;10.31;97.06;93458.09;5065614;28;20293;-77
2023/10/04 03:27:11;;;;;;;17.33;15.57;;;;;;;10.56;97.25;93505.97;5064673;28;20240;-74
2023/10/04 03:29:37;;;;;;;16.43;14.37;;;;;;;10.55;97.63;93498.41;5060318;28;20222;-75
2023/10/04 03:32:03;;;;;;;19.50;15.37;;;;;;;10.62;97.31;93509.38;5062798;28;20202;-77
2023/10/04 03:34:29;;;;;;;17.77;15.87;;;;;;;10.62;97.57;93504.94;5068072;28;20269;-80
2023/10/04 03:36:54;;;;;;;15.57;14.13;;;;;;;10.55;97.98;93508.84;5053338;28;20179;-74
2023/10/04 03:39:25;;;;;;;16.47;14.83;;;;;;;10.49;98.47;93510.63;5056440;28;20226;-74
2023/10/04 03:41:51;;;;;;;18.43;15.57;;;;;;;10.50;98.35;93516.66;5068627;28;20188;-76
2023/10/04 03:44:16;;;;;;;17.30;14.50;;;;;;;10.37;98.26;93514.50;5059515;28;20254;-77
2023/10/04 03:46:43;;;;;;;17.80;15.97;;;;;;;10.41;98.80;93507.75;5057157;28;20175;-74
2023/10/04 03:49:08;;;;;;;18.20;15.67;;;;;;;10.39;98.46;93494.16;5069249;28;20222;-76
2023/10/04 03:51:34;;;;;;;17.97;15.23;;;;;;;10.36;98.83;93494.66;5061127;28;20270;-76
2023/10/04 03:54:03;;;;;;;18.83;15.83;;;;;;;10.31;98.76;93503.25;5056940;28;20225;-75
2023/10/04 03:56:28;;;;;;;20.37;16.47;;;;;;;10.33;98.84;93505.63;5067591;28;20186;-75
2023/10/04 03:58:54;;;;;;;19.93;16.27;;;;;;;10.42;98.73;93509.31;5069383;28;20226;-75
2023/10/04 04:01:20;;;;;;;18.37;16.47;;;;;;;10.39;98.70;93508.00;5067529;28;20189;-75
2023/10/04 04:03:47;;;;;;;25.33;16.27;;;;;;;10.35;98.97;93512.16;5069014;28;20229;-77
2023/10/04 04:06:12;;;;;;;18.27;15.60;;;;;;;10.36;98.84;93505.91;5068249;28;20187;-84
2023/10/04 04:08:38;;;;;;;21.17;16.87;;;;;;;10.24;99.26;93487.03;5057840;28;20229;-82
2023/10/04 04:11:05;;;;;;;21.17;16.67;;;;;;;10.41;99.04;93508.50;5066620;28;20223;-80
2023/10/04 04:13:31;;;;;;;20.27;15.73;;;;;;;10.27;100.00;93512.66;5064792;28;20229;-82
2023/10/04 04:15:56;;;;;;;22.87;17.27;;;;;;;10.26;100.00;93510.28;5060643;28;20183;-77
2023/10/04 04:18:22;;;;;;;19.87;16.77;;;;;;;10.24;100.00;93507.16;5069013;28;20244;-78
2023/10/04 04:20:48;;;;;;;25.67;17.03;;;;;;;10.12;100.00;93493.50;5069503;28;20192;-78
2023/10/04 04:23:15;;;;;;;22.73;17.07;;;;;;;10.05;100.00;93491.13;5063700;28;20236;-77
2023/10/04 04:25:41;;;;;;;19.80;16.67;;;;;;;10.12;100.00;93494.28;5056150;28;20284;-77
2023/10/04 04:28:12;;;;;;;22.13;15.03;;;;;;;10.25;100.00;93503.50;5068344;28;20239;-77
2023/10/04 04:30:38;;;;;;;21.63;16.83;;;;;;;10.40;99.51;93509.56;5064510;28;20275;-82
2023/10/04 04:33:07;;;;;;;20.73;16.43;;;;;;;10.26;100.00;93505.84;5068615;28;20248;-84
2023/10/04 04:35:41;;;;;;;18.43;16.13;;;;;;;10.22;100.00;93504.78;5068679;28;20189;-80
2023/10/04 04:40:44;;;;;;;20.33;15.47;;;;;;;10.35;100.00;93493.88;5065463;28;20264;-83
2023/10/04 04:45:56;;;;;;;18.60;16.70;;;;;;;10.44;100.00;93494.97;5067046;28;20192;-82
2023/10/04 04:48:26;;;;;;;17.47;15.80;;;;;;;10.50;100.00;93490.53;5068579;28;20225;-81
2023/10/04 04:50:54;;;;;;;25.47;17.13;;;;;;;10.54;99.67;93497.59;5068642;28;20201;-83
2023/10/04 04:53:24;;;;;;;19.03;15.27;;;;;;;10.45;100.00;93488.69;5067399;28;20253;-82
2023/10/04 04:55:50;;;;;;;22.57;16.23;;;;;;;10.60;100.00;93501.81;5068483;28;20178;-82
2023/10/04 04:58:18;;;;;;;22.73;17.30;;;;;;;10.72;99.22;93507.56;5060736;28;20221;-82
2023/10/04 05:00:43;;;;;;;24.73;16.20;;;;;;;10.66;99.57;93495.56;5061446;28;20189;-82
2023/10/04 05:03:10;;;;;;;18.60;16.90;;;;;;;10.76;99.42;93507.84;5052602;28;20215;-81
2023/10/04 05:05:36;;;;;;;22.93;16.30;;;;;;;10.91;98.71;93513.13;5060162;28;20219;-77
2023/10/04 05:08:01;;;;;;;27.07;14.20;;;;;;;10.93;98.49;93511.81;5064574;28;20226;-77
2023/10/04 05:10:34;;;;;;;25.40;16.47;;;;;;;10.94;99.39;93513.38;5053869;28;20241;-78
2023/10/04 05:13:00;;;;;;;21.27;16.73;;;;;;;10.97;99.65;93514.72;5057759;28;20222;-76
2023/10/04 05:15:33;;;;;;;23.80;16.03;;;;;;;11.02;99.33;93514.69;5054949;28;20182;-77
2023/10/04 05:18:00;;;;;;;25.17;16.10;;;;;;;11.03;99.21;93506.63;5063984;28;20225;-80
2023/10/04 05:20:27;;;;;;;22.60;16.60;;;;;;;10.98;98.56;93504.00;5068528;28;20194;-87
2023/10/04 05:22:56;;;;;;;20.67;15.80;;;;;;;11.18;98.24;93509.25;5066294;28;20233;-91
2023/10/04 05:25:22;;;;;;;22.20;17.23;;;;;;;11.24;97.67;93513.44;5062817;28;20221;-77
2023/10/04 05:27:49;;;;;;;25.93;18.63;;;;;;;11.32;97.65;93519.97;5067327;28;20209;-78
2023/10/04 05:30:16;;;;;;;22.50;17.43;;;;;;;11.42;97.26;93522.63;5064518;28;20296;-91
2023/10/04 05:32:46;;;;;;;21.90;16.87;;;;;;;11.49;97.18;93525.75;5055760;28;20170;-91
2023/10/04 05:35:15;;;;;;;23.70;17.77;;;;;;;11.58;96.66;93526.03;5069581;28;20208;-88
2023/10/04 05:37:44;;;;;;;27.53;17.57;;;;;;;11.62;95.44;93529.66;5068628;28;20206;-88
2023/10/04 05:40:19;;;;;;;21.93;17.47;;;;;;;11.75;95.06;93543.03;5064598;28;20182;-76
2023/10/04 05:42:44;;;;;;;23.27;18.63;;;;;;;11.81;94.32;93539.38;5068945;28;20175;-77
2023/10/04 05:45:11;;;;;;;22.07;18.53;;;;;;;11.86;93.68;93520.28;5067960;28;20177;-84
2023/10/04 05:47:37;;;;;;;22.60;18.03;;;;;;;12.00;93.05;93537.00;5060392;28;20194;-91
2023/10/04 05:50:05;;;;;;;25.13;18.27;;;;;;;12.02;91.45;93521.81;5062296;28;20223;-78
2023/10/04 05:52:32;;;;;;;19.53;17.53;;;;;;;12.15;91.34;93539.59;5057519;28;20185;-81
2023/10/04 05:54:58;;;;;;;32.20;18.23;;;;;;;12.15;91.26;93540.38;5067245;28;20204;-80
2023/10/04 05:57:24;;;;;;;25.57;18.93;;;;;;;12.15;91.48;93532.53;5064783;28;20189;-85
2023/10/04 05:59:49;;;;;;;29.73;18.53;;;;;;;12.39;90.87;93544.00;5067427;28;20200;-84
2023/10/04 06:02:15;;;;;;;24.37;19.20;;;;;;;12.61;88.29;93549.69;5061779;28;20239;-82
2023/10/04 06:04:42;;;;;;;25.37;19.00;;;;;;;12.63;88.47;93541.56;5070898;28;20219;-85
2023/10/04 06:07:07;;;;;;;22.40;18.30;;;;;;;12.74;87.63;93554.38;5060974;28;20194;-85
2023/10/04 06:09:33;;;;;;;22.20;17.80;;;;;;;12.50;88.25;93527.19;5060471;28;20288;-79
2023/10/04 06:12:01;;;;;;;21.07;16.53;;;;;;;12.85;87.28;93549.84;5072516;28;20184;-78
2023/10/04 06:14:26;;;;;;;22.10;16.50;;;;;;;12.96;86.80;93541.66;5071623;28;20264;-85
2023/10/04 06:16:52;;;;;;;24.50;18.20;;;;;;;12.80;88.79;93562.97;5071124;28;20189;-81
2023/10/04 06:19:19;;;;;;;23.27;19.40;;;;;;;12.70;89.77;93568.28;5071434;28;20232;-81
2023/10/04 06:21:49;;;;;;;25.70;19.93;;;;;;;12.89;88.80;93556.91;5066988;28;20177;-82
2023/10/04 06:24:15;;;;;;;25.73;19.17;;;;;;;13.23;86.59;93569.38;5071380;28;20281;-80
2023/10/04 06:26:41;;;;;;;25.47;19.17;;;;;;;13.31;86.49;93563.56;5066656;28;20206;-81
2023/10/04 06:29:07;;;;;;;23.40;18.07;;;;;;;13.25;86.77;93562.00;5064753;28;20319;-81
2023/10/04 06:31:32;;;;;;;26.40;20.37;;;;;;;13.34;86.30;93557.75;5071999;28;20224;-82
2023/10/04 06:33:59;;;;;;;34.63;21.17;;;;;;;13.10;88.42;93565.50;5069203;28;20243;-78
2023/10/04 06:36:25;;;;;;;29.93;20.33;;;;;;;12.98;89.12;93570.22;5070863;28;20212;-81
2023/10/04 06:38:51;;;;;;;26.97;20.23;;;;;;;12.90;87.92;93536.75;5071397;28;20235;-85
2023/10/04 06:41:17;;;;;;;38.00;21.23;;;;;;;12.87;89.05;93576.59;5067024;28;20193;-83
2023/10/04 06:43:43;;;;;;;30.60;22.17;;;;;;;13.30;87.23;93573.25;5060089;28;21137;-73
2023/10/04 06:46:08;;;;;;;26.97;21.07;;;;;;;13.46;86.68;93576.56;5063720;28;20191;-73
2023/10/04 06:48:34;;;;;;;33.40;19.80;;;;;;;13.27;87.42;93570.38;5069864;28;20213;-73
2023/10/04 06:50:59;;;;;;;30.33;20.27;;;;;;;13.80;85.03;93578.19;5060190;28;20277;-73
2023/10/04 06:53:25;;;;;;;31.50;21.77;;;;;;;13.94;83.96;93588.81;5066091;28;20220;-73
2023/10/04 06:55:50;;;;;;;31.87;22.37;;;;;;;13.45;85.66;93575.78;5054462;28;20201;-73
2023/10/04 06:58:16;;;;;;;30.73;19.73;;;;;;;13.76;85.09;93590.25;5064852;28;20238;-73
2023/10/04 07:00:41;;;;;;;31.60;20.10;;;;;;;13.63;86.13;93590.91;5062863;28;20185;-73
2023/10/04 07:03:07;;;;;;;28.50;20.27;;;;;;;13.62;85.61;93594.56;5066602;28;20248;-72
2023/10/04 07:05:36;;;;;;;28.30;20.70;;;;;;;13.82;85.07;93591.78;5058086;28;20322;-73
2023/10/04 07:08:04;;;;;;;27.43;19.77;;;;;;;14.06;83.94;93591.88;5083505;28;20232;-73
2023/10/04 07:10:30;;;;;;;28.73;21.97;;;;;;;14.10;84.19;93585.78;5064121;28;20197;-73
2023/10/04 07:12:57;;;;;;;28.30;20.40;;;;;;;14.13;83.11;93603.63;5069571;28;20233;-73
2023/10/04 07:15:39;;;;;;;33.70;21.10;;;;;;;14.29;82.56;93599.84;5065163;28;20205;-73
2023/10/04 07:18:12;;;;;;;30.37;21.03;;;;;;;14.58;80.63;93601.69;5070003;28;20251;-73
2023/10/04 07:20:39;;;;;;;31.27;20.77;;;;;;;14.78;78.83;93596.22;5070494;28;20268;-73
2023/10/04 07:23:10;;;;;;;32.80;20.47;;;;;;;14.82;79.01;93589.34;5067330;28;20256;-73
2023/10/04 07:25:42;;;;;;;26.20;20.33;;;;;;;14.52;80.66;93588.59;5090716;28;20216;-72
2023/10/04 07:28:11;;;;;;;26.87;19.67;;;;;;;14.74;79.69;93588.09;5087667;28;20248;-72
2023/10/04 07:30:37;;;;;;;35.63;20.00;;;;;;;14.86;79.79;93585.88;5088718;28;20220;-73
2023/10/04 07:33:03;;;;;;;29.07;19.67;;;;;;;14.95;79.13;93575.50;5082637;28;20220;-72
2023/10/04 07:35:30;;;;;;;29.00;21.07;;;;;;;15.10;78.33;93581.34;5073711;28;20184;-73
2023/10/04 07:37:57;;;;;;;26.03;19.27;;;;;;;15.10;78.57;93591.88;5089350;28;20225;-73
2023/10/04 07:40:24;;;;;;;30.10;19.67;;;;;;;15.31;77.42;93587.94;5079660;28;20176;-73
2023/10/04 07:42:53;;;;;;;36.50;20.50;;;;;;;15.37;76.55;93576.28;5071922;28;20195;-73
2023/10/04 07:45:18;;;;;;;30.67;20.70;;;;;;;15.59;75.27;93583.63;5085391;28;20181;-73
2023/10/04 07:47:45;;;;;;;21.43;18.93;;;;;;;15.33;75.83;93550.81;5090273;28;20203;-73
2023/10/04 07:50:13;;;;;;;31.93;19.37;;;;;;;15.50;75.83;93580.84;5088410;28;20205;-73
2023/10/04 07:52:41;;;;;;;26.63;20.53;;;;;;;15.88;74.08;93586.88;5089742;28;20201;-73
2023/10/04 07:55:14;;;;;;;27.90;19.40;;;;;;;15.92;72.57;93577.38;5077751;28;20256;-73
2023/10/04 07:57:43;;;;;;;22.80;16.97;;;;;;;15.89;72.64;93586.59;5076304;28;20177;-73
2023/10/04 08:00:16;;;;;;;26.47;19.20;;;;;;;15.94;72.81;93583.09;5090343;28;20192;-73
2023/10/04 08:02:51;;;;;;;28.63;18.70;;;;;;;15.72;72.62;93535.53;5087918;28;20199;-73
2023/10/04 08:05:35;;;;;;;27.67;18.53;;;;;;;16.08;71.83;93586.56;5081206;28;20188;-73
2023/10/04 08:08:03;;;;;;;37.77;19.30;;;;;;;15.62;73.91;93588.34;5097602;28;20247;-72
2023/10/04 08:10:35;;;;;;;43.60;20.60;;;;;;;15.98;73.17;93576.22;5088867;28;20212;-73
2023/10/04 08:13:02;;;;;;;26.13;20.30;;;;;;;16.09;72.92;93577.63;5084130;28;20244;-73
2023/10/04 08:15:31;;;;;;;28.23;18.37;;;;;;;16.40;71.56;93578.69;5086121;28;20188;-73
2023/10/04 08:17:58;;;;;;;27.80;19.10;;;;;;;16.44;71.11;93574.41;5089489;28;20305;-73
2023/10/04 08:20:29;;;;;;;26.87;19.13;;;;;;;16.33;71.34;93566.94;5089533;28;20184;-73
2023/10/04 08:22:57;;;;;;;31.07;19.67;;;;;;;16.55;71.01;93570.53;5087543;28;20230;-73
2023/10/04 08:25:24;;;;;;;25.10;18.93;;;;;;;16.60;69.64;93580.97;5089863;28;20224;-73
2023/10/04 08:27:49;;;;;;;32.07;19.87;;;;;;;16.36;71.37;93572.41;5085306;28;20199;-72
2023/10/04 08:30:17;;;;;;;27.40;19.30;;;;;;;16.35;72.19;93576.13;5088912;28;20216;-73
2023/10/04 08:32:46;;;;;;;32.60;19.77;;;;;;;16.26;72.62;93572.59;5088506;28;20195;-73
2023/10/04 08:35:23;;;;;;;26.70;18.97;;;;;;;16.70;71.22;93570.22;5071762;28;20203;-73
2023/10/04 08:37:52;;;;;;;29.53;19.83;;;;;;;16.67;70.79;93557.63;5089162;28;20172;-73
2023/10/04 08:40:18;;;;;;;26.13;19.30;;;;;;;17.07;68.66;93567.41;5089175;28;20184;-73
2023/10/04 08:42:47;;;;;;;24.90;18.40;;;;;;;17.33;67.39;93571.09;5089280;28;20189;-73
2023/10/04 08:45:12;;;;;;;25.13;17.50;;;;;;;17.25;67.71;93569.16;5089333;28;20273;-73
2023/10/04 08:47:38;;;;;;;25.13;18.20;;;;;;;17.08;69.42;93568.97;5088635;28;20172;-73
2023/10/04 08:50:09;;;;;;;25.40;18.53;;;;;;;17.21;68.60;93564.75;5103901;28;20204;-73
2023/10/04 08:52:42;;;;;;;31.67;18.53;;;;;;;17.57;67.37;93550.53;5088600;28;20187;-73
2023/10/04 08:55:13;;;;;;;25.40;17.43;;;;;;;17.82;65.64;93569.53;5056916;28;20215;-73
2023/10/04 08:57:40;;;;;;;24.03;17.63;;;;;;;17.50;66.84;93565.22;5088548;28;20269;-73
2023/10/04 09:00:13;;;;;;;29.30;19.83;;;;;;;17.11;67.53;93573.66;5087875;28;20176;-73
2023/10/04 09:02:45;;;;;;;23.47;17.40;;;;;;;17.77;65.63;93578.34;5086239;28;20249;-73
2023/10/04 09:05:16;;;;;;;24.07;18.33;;;;;;;17.69;65.61;93559.78;5084544;28;20236;-73
2023/10/04 09:07:45;;;;;;;28.70;17.47;;;;;;;17.58;66.80;93573.22;5082116;28;20188;-73
2023/10/04 09:10:16;;;;;;;30.33;18.53;;;;;;;17.74;66.26;93565.75;5088282;28;20234;-73
2023/10/04 09:12:47;;;;;;;25.87;17.53;;;;;;;17.81;66.13;93565.31;5072646;28;20188;-73
2023/10/04 09:15:13;;;;;;;24.83;18.33;;;;;;;18.22;63.91;93550.84;5088321;28;20178;-73
2023/10/04 09:17:55;;;;;;;29.57;18.33;;;;;;;18.49;62.89;93577.16;5085008;28;20174;-73
2023/10/04 09:20:23;;;;;;;24.93;17.57;;;;;;;18.34;64.49;93574.88;5069322;28;20201;-74
2023/10/04 09:22:50;;;;;;;26.40;18.53;;;;;;;18.46;62.81;93579.66;5087646;28;20946;-73
2023/10/04 09:25:16;;;;;;;30.40;18.17;;;;;;;18.40;63.37;93562.31;5089088;28;20178;-73
2023/10/04 09:27:53;;;;;;;28.93;17.33;;;;;;;18.33;64.71;93572.53;5087460;28;20193;-73
2023/10/04 09:30:21;;;;;;;23.97;18.97;;;;;;;18.17;63.53;93563.41;5086508;28;20242;-73
2023/10/04 09:32:46;;;;;;;22.77;17.57;;;;;;;18.61;63.07;93560.75;5077713;28;20192;-73
2023/10/04 09:35:12;;;;;;;27.43;18.63;;;;;;;19.01;61.18;93572.88;5094662;28;20186;-73
2023/10/04 09:37:44;;;;;;;26.03;17.53;;;;;;;19.07;60.03;93569.00;5095332;28;20199;-73
2023/10/04 09:40:12;;;;;;;28.33;17.13;;;;;;;18.93;61.43;93576.28;5096179;28;20247;-73
2023/10/04 09:42:46;;;;;;;29.00;17.97;;;;;;;19.16;61.17;93578.53;5095856;28;20192;-73
2023/10/04 09:45:12;;;;;;;32.27;17.00;;;;;;;18.88;61.38;93563.16;5093283;28;20172;-73
2023/10/04 09:47:38;;;;;;;24.40;17.30;;;;;;;19.04;61.47;93566.97;5095077;28;20189;-73
2023/10/04 09:50:11;;;;;;;25.63;16.67;;;;;;;19.35;58.95;93567.72;5094421;28;20204;-73
2023/10/04 09:52:37;;;;;;;22.00;15.47;;;;;;;19.51;58.25;93566.19;5095038;28;20187;-73
2023/10/04 09:55:05;;;;;;;25.73;15.77;;;;;;;19.14;59.83;93550.81;5095931;28;20272;-73
2023/10/04 09:57:35;;;;;;;24.20;16.93;;;;;;;19.60;59.62;93563.53;5095491;28;20791;-74
2023/10/04 10:00:02;;;;;;;27.23;17.77;;;;;;;19.53;58.85;93561.38;5093211;28;20220;-73
2023/10/04 10:02:34;;;;;;;26.03;16.40;;;;;;;19.80;58.71;93562.97;5092906;28;20197;-73
2023/10/04 10:05:03;;;;;;;25.33;17.43;;;;;;;20.00;57.51;93570.28;5093772;28;20206;-74
2023/10/04 10:07:33;;;;;;;22.20;16.57;;;;;;;19.92;57.13;93566.50;5094839;28;20194;-73
2023/10/04 10:10:16;;;;;;;24.67;16.73;;;;;;;19.95;56.70;93576.53;5095381;28;20303;-73
2023/10/04 10:12:43;;;;;;;31.70;16.63;;;;;;;20.13;55.74;93561.38;5091341;28;20257;-73
2023/10/04 10:15:11;;;;;;;19.63;16.73;;;;;;;20.15;56.38;93548.59;5092428;28;20175;-73
2023/10/04 10:17:38;;;;;;;27.10;17.67;;;;;;;19.95;55.60;93554.53;5090644;28;20183;-73
2023/10/04 10:20:09;;;;;;;29.47;17.47;;;;;;;19.94;55.43;93547.66;5085847;28;20207;-73
2023/10/04 10:22:35;;;;;;;23.83;16.53;;;;;;;20.08;55.55;93551.69;5090107;28;20206;-73
2023/10/04 10:25:03;;;;;;;25.47;17.27;;;;;;;20.22;55.23;93546.25;5095434;28;20271;-73
2023/10/04 10:27:29;;;;;;;32.63;17.33;;;;;;;20.16;55.29;93529.72;5088909;28;20190;-73
2023/10/04 10:30:02;;;;;;;24.53;15.30;;;;;;;20.19;55.83;93518.50;5093774;28;20262;-73
2023/10/04 10:32:28;;;;;;;25.57;16.60;;;;;;;20.19;53.02;93515.84;5090351;28;20182;-73
2023/10/04 10:35:04;;;;;;;22.47;17.20;;;;;;;20.35;53.82;93532.81;5091909;28;20234;-73
2023/10/04 10:37:35;;;;;;;26.77;15.63;;;;;;;20.29;51.89;93528.78;5090240;28;20207;-73
2023/10/04 10:40:08;;;;;;;20.20;15.73;;;;;;;20.37;51.73;93533.25;5094601;28;20242;-73
2023/10/04 10:43:08;;;;;;;26.77;15.10;;;;;;;20.42;51.10;93516.44;5095204;28;20180;-73
2023/10/04 10:45:34;;;;;;;19.17;15.10;;;;;;;20.87;51.33;93522.03;5072907;28;20648;-73
2023/10/04 10:48:01;;;;;;;17.85;14.35;;;;;;;21.12;49.49;93515.84;5090391;28;20299;-73
2023/10/04 10:50:42;;;;;;;20.83;14.32;;;;;;;21.21;46.64;93520.03;5092222;28;20208;-73
2023/10/04 10:53:10;;;;;;;19.48;12.68;;;;;;;21.22;45.12;93510.16;5072932;28;20215;-73
2023/10/04 10:55:38;;;;;;;21.55;14.02;;;;;;;21.19;45.89;93502.81;5091463;28;20180;-73
2023/10/04 10:58:04;;;;;;;20.73;13.77;;;;;;;20.99;47.20;93496.38;5089774;28;20263;-73
2023/10/04 11:00:33;;;;;;;24.25;15.00;;;;;;;21.08;47.05;93514.91;5090005;28;20181;-73
2023/10/04 11:02:59;;;;;;;16.10;13.60;;;;;;;21.08;46.05;93502.44;5091439;28;20228;-73
2023/10/04 11:05:26;;;;;;;18.92;13.80;;;;;;;21.28;47.52;93503.53;5083585;28;20239;-73
2023/10/04 11:07:54;;;;;;;18.67;12.95;;;;;;;21.45;45.69;93496.25;5075817;28;20187;-73
2023/10/04 11:10:21;;;;;;;14.40;12.45;;;;;;;21.52;43.60;93501.06;5073851;28;20225;-73
2023/10/04 11:12:51;;;;;;;20.83;13.00;;;;;;;21.81;42.78;93501.00;5092060;28;20180;-73
2023/10/04 11:15:23;;;;;;;15.57;12.18;;;;;;;22.05;41.24;93503.78;5092032;28;20180;-73
2023/10/04 11:17:49;;;;;;;15.77;11.82;;;;;;;22.12;37.98;93498.69;5088854;28;20759;-74
2023/10/04 11:20:18;;;;;;;13.82;11.35;;;;;;;22.08;38.02;93489.81;5085810;28;20183;-74
2023/10/04 11:22:44;;;;;;;15.60;12.07;;;;;;;21.67;38.12;93497.81;5090831;28;20207;-74
2023/10/04 11:25:13;;;;;;;12.57;11.23;;;;;;;21.56;39.39;93502.72;5090307;28;20238;-74
2023/10/04 11:27:42;;;;;;;13.82;12.32;;;;;;;21.75;37.11;93500.44;5089657;28;20182;-73